sensor_id;sensor_type;location;lat;lon;timestamp;P1;durP1;ratioP1;P2;durP2;ratioP2
41897;SDS011;27576;53.366;-1.498;2023-03-01T00:01:07;15.02;;;9.13;;
41897;SDS011;27576;53.366;-1.498;2023-03-01T00:03:34;17.13;;;11.75;;
41897;SDS011;27576;53.366;-1.498;2023-03-01T00:06:00;17.35;;;11.18;;
41897;SDS011;27576;53.366;-1.498;2023-03-01T00:08:27;20.67;;;13.13;;
41897;SDS011;27576;53.366;-1.498;2023-03-01T00:13:36;19.13;;;11.32;;
41897;SDS011;27576;53.366;-1.498;2023-03-01T00:16:06;19.58;;;9.57;;
41897;SDS011;27576;53.366;-1.498;2023-03-01T00:18:40;16.02;;;9.15;;
41897;SDS011;27576;53.366;-1.498;2023-03-01T00:21:05;10.75;;;8.35;;
41897;SDS011;27576;53.366;-1.498;2023-03-01T00:23:31;15.38;;;8.43;;
41897;SDS011;27576;53.366;-1.498;2023-03-01T00:25:58;12.57;;;7.65;;
41897;SDS011;27576;53.366;-1.498;2023-03-01T00:28:23;13.43;;;7.55;;
41897;SDS011;27576;53.366;-1.498;2023-03-01T00:30:48;12.30;;;7.47;;
41897;SDS011;27576;53.366;-1.498;2023-03-01T00:33:14;10.20;;;6.72;;
41897;SDS011;27576;53.366;-1.498;2023-03-01T00:35:40;13.18;;;7.88;;
41897;SDS011;27576;53.366;-1.498;2023-03-01T00:38:05;12.85;;;6.95;;
41897;SDS011;27576;53.366;-1.498;2023-03-01T00:40:31;13.63;;;7.55;;
41897;SDS011;27576;53.366;-1.498;2023-03-01T00:42:58;11.15;;;8.35;;
41897;SDS011;27576;53.366;-1.498;2023-03-01T00:45:24;11.52;;;8.38;;
41897;SDS011;27576;53.366;-1.498;2023-03-01T00:47:50;13.65;;;9.13;;
41897;SDS011;27576;53.366;-1.498;2023-03-01T00:50:15;14.48;;;10.30;;
41897;SDS011;27576;53.366;-1.498;2023-03-01T00:52:41;14.10;;;9.63;;
41897;SDS011;27576;53.366;-1.498;2023-03-01T00:55:07;14.45;;;9.57;;
41897;SDS011;27576;53.366;-1.498;2023-03-01T00:57:32;12.15;;;9.18;;
41897;SDS011;27576;53.366;-1.498;2023-03-01T00:59:58;11.63;;;8.05;;
41897;SDS011;27576;53.366;-1.498;2023-03-01T01:02:23;10.85;;;7.50;;
41897;SDS011;27576;53.366;-1.498;2023-03-01T01:04:49;18.50;;;7.75;;
41897;SDS011;27576;53.366;-1.498;2023-03-01T01:07:15;10.15;;;5.65;;
41897;SDS011;27576;53.366;-1.498;2023-03-01T01:09:41;9.07;;;5.85;;
41897;SDS011;27576;53.366;-1.498;2023-03-01T01:12:06;10.43;;;6.18;;
41897;SDS011;27576;53.366;-1.498;2023-03-01T01:14:32;10.75;;;6.88;;
41897;SDS011;27576;53.366;-1.498;2023-03-01T01:16:58;9.35;;;6.88;;
41897;SDS011;27576;53.366;-1.498;2023-03-01T01:19:23;14.57;;;7.40;;
41897;SDS011;27576;53.366;-1.498;2023-03-01T01:21:49;10.65;;;7.57;;
41897;SDS011;27576;53.366;-1.498;2023-03-01T01:24:15;11.50;;;9.15;;
41897;SDS011;27576;53.366;-1.498;2023-03-01T01:26:41;24.77;;;12.40;;
41897;SDS011;27576;53.366;-1.498;2023-03-01T01:29:07;16.23;;;11.35;;
41897;SDS011;27576;53.366;-1.498;2023-03-01T01:31:33;17.25;;;11.27;;
41897;SDS011;27576;53.366;-1.498;2023-03-01T01:34:01;16.73;;;11.07;;
41897;SDS011;27576;53.366;-1.498;2023-03-01T01:36:29;14.57;;;10.82;;
41897;SDS011;27576;53.366;-1.498;2023-03-01T01:38:54;12.68;;;9.43;;
41897;SDS011;27576;53.366;-1.498;2023-03-01T01:41:20;19.15;;;11.82;;
41897;SDS011;27576;53.366;-1.498;2023-03-01T01:43:48;16.13;;;9.52;;
41897;SDS011;27576;53.366;-1.498;2023-03-01T01:46:32;16.20;;;9.45;;
41897;SDS011;27576;53.366;-1.498;2023-03-01T01:49:02;15.13;;;9.20;;
41897;SDS011;27576;53.366;-1.498;2023-03-01T01:51:36;19.30;;;9.93;;
41897;SDS011;27576;53.366;-1.498;2023-03-01T01:54:12;16.88;;;8.63;;
41897;SDS011;27576;53.366;-1.498;2023-03-01T01:56:48;14.00;;;8.70;;
41897;SDS011;27576;53.366;-1.498;2023-03-01T01:59:17;13.95;;;8.38;;
41897;SDS011;27576;53.366;-1.498;2023-03-01T02:01:42;13.10;;;7.80;;
41897;SDS011;27576;53.366;-1.498;2023-03-01T02:04:08;12.23;;;7.00;;
41897;SDS011;27576;53.366;-1.498;2023-03-01T02:06:36;14.18;;;7.22;;
41897;SDS011;27576;53.366;-1.498;2023-03-01T02:09:07;13.88;;;7.22;;
41897;SDS011;27576;53.366;-1.498;2023-03-01T02:11:36;12.55;;;6.85;;
41897;SDS011;27576;53.366;-1.498;2023-03-01T02:14:02;10.27;;;6.65;;
41897;SDS011;27576;53.366;-1.498;2023-03-01T02:16:28;9.18;;;7.03;;
41897;SDS011;27576;53.366;-1.498;2023-03-01T02:18:54;12.23;;;6.80;;
41897;SDS011;27576;53.366;-1.498;2023-03-01T02:23:49;8.25;;;6.45;;
41897;SDS011;27576;53.366;-1.498;2023-03-01T02:26:25;8.93;;;6.05;;
41897;SDS011;27576;53.366;-1.498;2023-03-01T02:29:14;7.80;;;5.35;;
41897;SDS011;27576;53.366;-1.498;2023-03-01T02:31:40;11.50;;;6.80;;
41897;SDS011;27576;53.366;-1.498;2023-03-01T02:34:18;10.43;;;6.82;;
41897;SDS011;27576;53.366;-1.498;2023-03-01T02:36:49;11.52;;;6.43;;
41897;SDS011;27576;53.366;-1.498;2023-03-01T02:39:21;9.75;;;6.95;;
41897;SDS011;27576;53.366;-1.498;2023-03-01T02:41:52;10.60;;;6.88;;
41897;SDS011;27576;53.366;-1.498;2023-03-01T02:44:18;11.80;;;7.15;;
41897;SDS011;27576;53.366;-1.498;2023-03-01T02:46:49;14.30;;;8.02;;
41897;SDS011;27576;53.366;-1.498;2023-03-01T02:51:57;13.48;;;8.88;;
41897;SDS011;27576;53.366;-1.498;2023-03-01T02:57:38;11.63;;;8.50;;
41897;SDS011;27576;53.366;-1.498;2023-03-01T03:00:08;12.48;;;9.40;;
41897;SDS011;27576;53.366;-1.498;2023-03-01T03:02:36;11.93;;;9.07;;
41897;SDS011;27576;53.366;-1.498;2023-03-01T03:05:03;15.02;;;9.30;;
41897;SDS011;27576;53.366;-1.498;2023-03-01T03:07:31;14.93;;;9.90;;
41897;SDS011;27576;53.366;-1.498;2023-03-01T03:09:58;11.65;;;8.68;;
41897;SDS011;27576;53.366;-1.498;2023-03-01T03:12:23;12.48;;;9.10;;
41897;SDS011;27576;53.366;-1.498;2023-03-01T03:14:49;13.80;;;10.30;;
41897;SDS011;27576;53.366;-1.498;2023-03-01T03:17:14;13.20;;;10.43;;
41897;SDS011;27576;53.366;-1.498;2023-03-01T03:19:39;16.80;;;12.65;;
41897;SDS011;27576;53.366;-1.498;2023-03-01T03:22:05;20.90;;;12.43;;
41897;SDS011;27576;53.366;-1.498;2023-03-01T03:24:30;14.48;;;11.02;;
41897;SDS011;27576;53.366;-1.498;2023-03-01T03:27:02;15.50;;;10.05;;
41897;SDS011;27576;53.366;-1.498;2023-03-01T03:29:31;14.20;;;10.18;;
41897;SDS011;27576;53.366;-1.498;2023-03-01T03:31:57;13.02;;;9.60;;
41897;SDS011;27576;53.366;-1.498;2023-03-01T03:34:23;16.27;;;11.07;;
41897;SDS011;27576;53.366;-1.498;2023-03-01T03:36:52;12.93;;;9.75;;
41897;SDS011;27576;53.366;-1.498;2023-03-01T03:39:25;12.93;;;9.50;;
41897;SDS011;27576;53.366;-1.498;2023-03-01T03:41:51;11.32;;;8.70;;
41897;SDS011;27576;53.366;-1.498;2023-03-01T03:44:17;11.63;;;8.07;;
41897;SDS011;27576;53.366;-1.498;2023-03-01T03:46:42;12.70;;;8.20;;
41897;SDS011;27576;53.366;-1.498;2023-03-01T03:49:08;13.75;;;9.38;;
41897;SDS011;27576;53.366;-1.498;2023-03-01T03:51:33;12.18;;;9.15;;
41897;SDS011;27576;53.366;-1.498;2023-03-01T03:53:58;13.98;;;9.43;;
41897;SDS011;27576;53.366;-1.498;2023-03-01T03:56:24;14.65;;;9.55;;
41897;SDS011;27576;53.366;-1.498;2023-03-01T03:58:51;13.50;;;9.45;;
41897;SDS011;27576;53.366;-1.498;2023-03-01T04:01:19;16.10;;;10.73;;
41897;SDS011;27576;53.366;-1.498;2023-03-01T04:03:44;12.18;;;9.68;;
41897;SDS011;27576;53.366;-1.498;2023-03-01T04:06:14;14.75;;;9.75;;
41897;SDS011;27576;53.366;-1.498;2023-03-01T04:08:39;11.00;;;7.88;;
41897;SDS011;27576;53.366;-1.498;2023-03-01T04:11:05;11.57;;;8.77;;
41897;SDS011;27576;53.366;-1.498;2023-03-01T04:13:50;9.77;;;7.35;;
41897;SDS011;27576;53.366;-1.498;2023-03-01T04:16:17;7.60;;;5.70;;
41897;SDS011;27576;53.366;-1.498;2023-03-01T04:18:43;7.38;;;5.97;;
41897;SDS011;27576;53.366;-1.498;2023-03-01T04:21:09;10.32;;;6.15;;
41897;SDS011;27576;53.366;-1.498;2023-03-01T04:23:35;7.85;;;5.85;;
41897;SDS011;27576;53.366;-1.498;2023-03-01T04:26:01;9.00;;;5.85;;
41897;SDS011;27576;53.366;-1.498;2023-03-01T04:28:28;7.55;;;6.05;;
41897;SDS011;27576;53.366;-1.498;2023-03-01T04:31:01;9.93;;;6.75;;
41897;SDS011;27576;53.366;-1.498;2023-03-01T04:33:38;10.30;;;7.60;;
41897;SDS011;27576;53.366;-1.498;2023-03-01T04:36:11;13.80;;;8.23;;
41897;SDS011;27576;53.366;-1.498;2023-03-01T04:38:38;11.93;;;7.93;;
41897;SDS011;27576;53.366;-1.498;2023-03-01T04:41:05;13.55;;;9.18;;
41897;SDS011;27576;53.366;-1.498;2023-03-01T04:43:33;10.63;;;8.60;;
41897;SDS011;27576;53.366;-1.498;2023-03-01T04:46:03;13.18;;;10.23;;
41897;SDS011;27576;53.366;-1.498;2023-03-01T04:48:34;16.60;;;9.55;;
41897;SDS011;27576;53.366;-1.498;2023-03-01T04:51:00;15.55;;;10.05;;
41897;SDS011;27576;53.366;-1.498;2023-03-01T04:53:26;11.57;;;8.88;;
41897;SDS011;27576;53.366;-1.498;2023-03-01T04:55:53;12.40;;;9.40;;
41897;SDS011;27576;53.366;-1.498;2023-03-01T04:58:19;12.68;;;8.80;;
41897;SDS011;27576;53.366;-1.498;2023-03-01T05:00:44;12.32;;;8.73;;
41897;SDS011;27576;53.366;-1.498;2023-03-01T05:03:10;11.13;;;7.82;;
41897;SDS011;27576;53.366;-1.498;2023-03-01T05:05:36;10.85;;;8.82;;
41897;SDS011;27576;53.366;-1.498;2023-03-01T05:08:04;12.23;;;8.77;;
41897;SDS011;27576;53.366;-1.498;2023-03-01T05:10:33;11.23;;;8.90;;
41897;SDS011;27576;53.366;-1.498;2023-03-01T05:13:00;13.70;;;10.70;;
41897;SDS011;27576;53.366;-1.498;2023-03-01T05:15:27;12.40;;;10.20;;
41897;SDS011;27576;53.366;-1.498;2023-03-01T05:17:55;14.20;;;10.88;;
41897;SDS011;27576;53.366;-1.498;2023-03-01T05:20:24;15.45;;;11.15;;
41897;SDS011;27576;53.366;-1.498;2023-03-01T05:22:51;14.70;;;10.05;;
41897;SDS011;27576;53.366;-1.498;2023-03-01T05:25:17;12.93;;;10.35;;
41897;SDS011;27576;53.366;-1.498;2023-03-01T05:27:42;14.38;;;11.02;;
41897;SDS011;27576;53.366;-1.498;2023-03-01T05:30:08;13.57;;;9.38;;
41897;SDS011;27576;53.366;-1.498;2023-03-01T05:35:08;13.00;;;8.15;;
41897;SDS011;27576;53.366;-1.498;2023-03-01T05:37:34;9.85;;;6.85;;
41897;SDS011;27576;53.366;-1.498;2023-03-01T05:40:00;9.10;;;6.63;;
41897;SDS011;27576;53.366;-1.498;2023-03-01T05:42:26;8.00;;;6.15;;
41897;SDS011;27576;53.366;-1.498;2023-03-01T05:44:51;8.88;;;6.40;;
41897;SDS011;27576;53.366;-1.498;2023-03-01T05:47:16;8.82;;;6.20;;
41897;SDS011;27576;53.366;-1.498;2023-03-01T05:49:42;8.27;;;5.88;;
41897;SDS011;27576;53.366;-1.498;2023-03-01T05:52:07;10.57;;;6.00;;
41897;SDS011;27576;53.366;-1.498;2023-03-01T05:54:32;9.25;;;6.25;;
41897;SDS011;27576;53.366;-1.498;2023-03-01T05:56:58;7.55;;;6.03;;
41897;SDS011;27576;53.366;-1.498;2023-03-01T05:59:23;8.05;;;6.15;;
41897;SDS011;27576;53.366;-1.498;2023-03-01T06:01:48;6.20;;;5.60;;
41897;SDS011;27576;53.366;-1.498;2023-03-01T06:04:14;7.78;;;6.07;;
41897;SDS011;27576;53.366;-1.498;2023-03-01T06:06:40;8.68;;;6.43;;
41897;SDS011;27576;53.366;-1.498;2023-03-01T06:09:06;10.27;;;6.55;;
41897;SDS011;27576;53.366;-1.498;2023-03-01T06:11:34;12.35;;;7.20;;
41897;SDS011;27576;53.366;-1.498;2023-03-01T06:14:00;10.18;;;7.57;;
41897;SDS011;27576;53.366;-1.498;2023-03-01T06:16:25;9.88;;;6.80;;
41897;SDS011;27576;53.366;-1.498;2023-03-01T06:18:51;11.77;;;7.40;;
41897;SDS011;27576;53.366;-1.498;2023-03-01T06:21:16;10.57;;;7.57;;
41897;SDS011;27576;53.366;-1.498;2023-03-01T06:23:41;10.38;;;6.65;;
41897;SDS011;27576;53.366;-1.498;2023-03-01T06:26:07;10.32;;;6.75;;
41897;SDS011;27576;53.366;-1.498;2023-03-01T06:28:34;9.40;;;6.22;;
41897;SDS011;27576;53.366;-1.498;2023-03-01T06:30:59;9.65;;;7.03;;
41897;SDS011;27576;53.366;-1.498;2023-03-01T06:33:25;10.65;;;7.20;;
41897;SDS011;27576;53.366;-1.498;2023-03-01T06:35:51;12.55;;;7.15;;
41897;SDS011;27576;53.366;-1.498;2023-03-01T06:38:19;9.52;;;6.78;;
41897;SDS011;27576;53.366;-1.498;2023-03-01T06:40:44;11.25;;;6.80;;
41897;SDS011;27576;53.366;-1.498;2023-03-01T06:43:10;12.68;;;7.13;;
41897;SDS011;27576;53.366;-1.498;2023-03-01T06:45:36;10.30;;;6.70;;
41897;SDS011;27576;53.366;-1.498;2023-03-01T06:48:05;14.50;;;8.75;;
41897;SDS011;27576;53.366;-1.498;2023-03-01T06:50:31;16.67;;;9.90;;
41897;SDS011;27576;53.366;-1.498;2023-03-01T06:52:57;14.05;;;10.50;;
41897;SDS011;27576;53.366;-1.498;2023-03-01T06:55:23;18.17;;;10.10;;
41897;SDS011;27576;53.366;-1.498;2023-03-01T06:57:48;12.88;;;8.98;;
41897;SDS011;27576;53.366;-1.498;2023-03-01T07:00:14;14.00;;;8.93;;
41897;SDS011;27576;53.366;-1.498;2023-03-01T07:02:39;11.32;;;7.93;;
41897;SDS011;27576;53.366;-1.498;2023-03-01T07:05:05;15.07;;;7.25;;
41897;SDS011;27576;53.366;-1.498;2023-03-01T07:07:32;10.88;;;6.97;;
41897;SDS011;27576;53.366;-1.498;2023-03-01T07:09:58;8.82;;;5.97;;
41897;SDS011;27576;53.366;-1.498;2023-03-01T07:12:23;12.73;;;7.25;;
41897;SDS011;27576;53.366;-1.498;2023-03-01T07:14:48;10.82;;;7.65;;
41897;SDS011;27576;53.366;-1.498;2023-03-01T07:17:13;15.15;;;8.00;;
41897;SDS011;27576;53.366;-1.498;2023-03-01T07:19:39;13.93;;;7.85;;
41897;SDS011;27576;53.366;-1.498;2023-03-01T07:22:04;13.43;;;8.10;;
41897;SDS011;27576;53.366;-1.498;2023-03-01T07:24:32;13.07;;;7.75;;
41897;SDS011;27576;53.366;-1.498;2023-03-01T07:26:58;14.73;;;7.95;;
41897;SDS011;27576;53.366;-1.498;2023-03-01T07:29:23;13.45;;;8.07;;
41897;SDS011;27576;53.366;-1.498;2023-03-01T07:31:48;12.27;;;7.75;;
41897;SDS011;27576;53.366;-1.498;2023-03-01T07:34:14;10.25;;;7.55;;
41897;SDS011;27576;53.366;-1.498;2023-03-01T07:36:39;10.43;;;7.80;;
41897;SDS011;27576;53.366;-1.498;2023-03-01T07:39:07;10.32;;;7.45;;
41897;SDS011;27576;53.366;-1.498;2023-03-01T07:41:33;14.30;;;7.88;;
41897;SDS011;27576;53.366;-1.498;2023-03-01T07:43:59;14.75;;;9.30;;
41897;SDS011;27576;53.366;-1.498;2023-03-01T07:46:24;13.40;;;9.07;;
41897;SDS011;27576;53.366;-1.498;2023-03-01T07:48:49;16.05;;;8.32;;
41897;SDS011;27576;53.366;-1.498;2023-03-01T07:51:15;10.63;;;8.38;;
41897;SDS011;27576;53.366;-1.498;2023-03-01T07:53:40;11.65;;;8.27;;
41897;SDS011;27576;53.366;-1.498;2023-03-01T07:56:07;12.07;;;7.85;;
41897;SDS011;27576;53.366;-1.498;2023-03-01T07:58:34;9.57;;;7.28;;
41897;SDS011;27576;53.366;-1.498;2023-03-01T08:01:05;8.90;;;6.60;;
41897;SDS011;27576;53.366;-1.498;2023-03-01T08:03:32;8.77;;;6.05;;
41897;SDS011;27576;53.366;-1.498;2023-03-01T08:06:05;11.57;;;6.20;;
41897;SDS011;27576;53.366;-1.498;2023-03-01T08:08:33;13.48;;;5.88;;
41897;SDS011;27576;53.366;-1.498;2023-03-01T08:10:59;8.75;;;5.32;;
41897;SDS011;27576;53.366;-1.498;2023-03-01T08:13:26;10.27;;;5.50;;
41897;SDS011;27576;53.366;-1.498;2023-03-01T08:15:52;9.18;;;5.43;;
41897;SDS011;27576;53.366;-1.498;2023-03-01T08:18:18;8.00;;;4.95;;
41897;SDS011;27576;53.366;-1.498;2023-03-01T08:20:45;10.68;;;5.35;;
41897;SDS011;27576;53.366;-1.498;2023-03-01T08:23:11;10.07;;;5.93;;
41897;SDS011;27576;53.366;-1.498;2023-03-01T08:25:36;9.95;;;6.78;;
41897;SDS011;27576;53.366;-1.498;2023-03-01T08:28:02;11.43;;;7.07;;
41897;SDS011;27576;53.366;-1.498;2023-03-01T08:30:28;10.52;;;7.25;;
41897;SDS011;27576;53.366;-1.498;2023-03-01T08:32:53;11.63;;;7.95;;
41897;SDS011;27576;53.366;-1.498;2023-03-01T08:35:19;15.10;;;7.22;;
41897;SDS011;27576;53.366;-1.498;2023-03-01T08:37:45;11.93;;;6.25;;
41897;SDS011;27576;53.366;-1.498;2023-03-01T08:40:11;11.48;;;5.07;;
41897;SDS011;27576;53.366;-1.498;2023-03-01T08:42:38;6.22;;;3.95;;
41897;SDS011;27576;53.366;-1.498;2023-03-01T08:45:04;7.88;;;3.75;;
41897;SDS011;27576;53.366;-1.498;2023-03-01T08:47:30;9.35;;;3.40;;
41897;SDS011;27576;53.366;-1.498;2023-03-01T08:49:55;7.72;;;3.53;;
41897;SDS011;27576;53.366;-1.498;2023-03-01T08:52:20;9.80;;;3.00;;
41897;SDS011;27576;53.366;-1.498;2023-03-01T08:54:49;9.20;;;3.17;;
41897;SDS011;27576;53.366;-1.498;2023-03-01T08:57:14;7.05;;;3.08;;
41897;SDS011;27576;53.366;-1.498;2023-03-01T08:59:40;8.35;;;3.35;;
41897;SDS011;27576;53.366;-1.498;2023-03-01T09:02:10;11.35;;;3.40;;
41897;SDS011;27576;53.366;-1.498;2023-03-01T09:04:38;7.47;;;3.65;;
41897;SDS011;27576;53.366;-1.498;2023-03-01T09:07:04;8.93;;;3.80;;
41897;SDS011;27576;53.366;-1.498;2023-03-01T09:09:30;10.88;;;4.53;;
41897;SDS011;27576;53.366;-1.498;2023-03-01T09:11:55;11.38;;;4.63;;
41897;SDS011;27576;53.366;-1.498;2023-03-01T09:14:21;12.02;;;5.20;;
41897;SDS011;27576;53.366;-1.498;2023-03-01T09:16:46;8.82;;;4.68;;
41897;SDS011;27576;53.366;-1.498;2023-03-01T09:19:11;6.50;;;3.88;;
41897;SDS011;27576;53.366;-1.498;2023-03-01T09:21:37;8.95;;;3.92;;
41897;SDS011;27576;53.366;-1.498;2023-03-01T09:24:02;5.53;;;3.58;;
41897;SDS011;27576;53.366;-1.498;2023-03-01T09:26:28;8.75;;;3.65;;
41897;SDS011;27576;53.366;-1.498;2023-03-01T09:28:54;13.07;;;4.25;;
41897;SDS011;27576;53.366;-1.498;2023-03-01T09:31:21;8.60;;;3.72;;
41897;SDS011;27576;53.366;-1.498;2023-03-01T09:33:48;9.85;;;3.80;;
41897;SDS011;27576;53.366;-1.498;2023-03-01T09:36:19;8.60;;;4.90;;
41897;SDS011;27576;53.366;-1.498;2023-03-01T09:38:46;9.68;;;4.63;;
41897;SDS011;27576;53.366;-1.498;2023-03-01T09:43:48;6.75;;;4.35;;
41897;SDS011;27576;53.366;-1.498;2023-03-01T09:46:21;6.82;;;3.90;;
41897;SDS011;27576;53.366;-1.498;2023-03-01T09:48:51;8.77;;;4.28;;
41897;SDS011;27576;53.366;-1.498;2023-03-01T09:54:23;8.07;;;3.90;;
41897;SDS011;27576;53.366;-1.498;2023-03-01T09:56:56;7.68;;;3.90;;
41897;SDS011;27576;53.366;-1.498;2023-03-01T09:59:53;6.45;;;3.80;;
41897;SDS011;27576;53.366;-1.498;2023-03-01T10:08:00;7.85;;;3.53;;
41897;SDS011;27576;53.366;-1.498;2023-03-01T10:12:56;6.43;;;3.55;;
41897;SDS011;27576;53.366;-1.498;2023-03-01T10:15:25;8.52;;;4.47;;
41897;SDS011;27576;53.366;-1.498;2023-03-01T10:18:02;9.85;;;3.65;;
41897;SDS011;27576;53.366;-1.498;2023-03-01T10:23:24;7.22;;;3.13;;
41897;SDS011;27576;53.366;-1.498;2023-03-01T10:31:43;10.07;;;3.78;;
41897;SDS011;27576;53.366;-1.498;2023-03-01T10:34:13;8.45;;;3.75;;
41897;SDS011;27576;53.366;-1.498;2023-03-01T10:36:41;14.27;;;4.00;;
41897;SDS011;27576;53.366;-1.498;2023-03-01T10:39:15;5.30;;;4.05;;
41897;SDS011;27576;53.366;-1.498;2023-03-01T10:42:02;10.30;;;5.10;;
41897;SDS011;27576;53.366;-1.498;2023-03-01T10:44:48;9.93;;;4.18;;
41897;SDS011;27576;53.366;-1.498;2023-03-01T10:47:24;10.55;;;4.38;;
41897;SDS011;27576;53.366;-1.498;2023-03-01T10:52:24;7.28;;;3.00;;
41897;SDS011;27576;53.366;-1.498;2023-03-01T10:54:53;6.50;;;3.42;;
41897;SDS011;27576;53.366;-1.498;2023-03-01T10:57:38;5.63;;;3.17;;
41897;SDS011;27576;53.366;-1.498;2023-03-01T11:00:21;7.03;;;3.63;;
41897;SDS011;27576;53.366;-1.498;2023-03-01T11:02:49;11.48;;;4.30;;
41897;SDS011;27576;53.366;-1.498;2023-03-01T11:05:25;4.95;;;3.40;;
41897;SDS011;27576;53.366;-1.498;2023-03-01T11:10:27;7.03;;;3.55;;
41897;SDS011;27576;53.366;-1.498;2023-03-01T11:13:05;9.30;;;3.40;;
41897;SDS011;27576;53.366;-1.498;2023-03-01T11:15:40;5.22;;;3.33;;
41897;SDS011;27576;53.366;-1.498;2023-03-01T11:18:15;6.97;;;3.65;;
41897;SDS011;27576;53.366;-1.498;2023-03-01T11:20:44;8.77;;;2.97;;
41897;SDS011;27576;53.366;-1.498;2023-03-01T11:23:10;9.93;;;2.95;;
41897;SDS011;27576;53.366;-1.498;2023-03-01T11:25:43;5.82;;;3.20;;
41897;SDS011;27576;53.366;-1.498;2023-03-01T11:28:14;5.13;;;3.03;;
41897;SDS011;27576;53.366;-1.498;2023-03-01T11:30:53;5.05;;;3.13;;
41897;SDS011;27576;53.366;-1.498;2023-03-01T11:33:24;9.80;;;3.90;;
41897;SDS011;27576;53.366;-1.498;2023-03-01T11:39:13;4.32;;;2.88;;
41897;SDS011;27576;53.366;-1.498;2023-03-01T11:41:48;16.35;;;3.50;;
41897;SDS011;27576;53.366;-1.498;2023-03-01T11:44:20;9.85;;;2.80;;
41897;SDS011;27576;53.366;-1.498;2023-03-01T11:52:33;5.80;;;2.92;;
41897;SDS011;27576;53.366;-1.498;2023-03-01T12:06:18;6.85;;;2.45;;
41897;SDS011;27576;53.366;-1.498;2023-03-01T12:19:50;6.32;;;2.10;;
41897;SDS011;27576;53.366;-1.498;2023-03-01T12:22:30;6.93;;;2.17;;
41897;SDS011;27576;53.366;-1.498;2023-03-01T12:25:10;4.18;;;1.73;;
41897;SDS011;27576;53.366;-1.498;2023-03-01T12:27:58;4.88;;;1.90;;
41897;SDS011;27576;53.366;-1.498;2023-03-01T12:33:19;5.00;;;2.10;;
41897;SDS011;27576;53.366;-1.498;2023-03-01T12:38:42;5.03;;;1.63;;
41897;SDS011;27576;53.366;-1.498;2023-03-01T12:44:28;2.95;;;1.30;;
41897;SDS011;27576;53.366;-1.498;2023-03-01T12:46:51;4.72;;;1.65;;
41897;SDS011;27576;53.366;-1.498;2023-03-01T12:49:49;4.93;;;1.38;;
41897;SDS011;27576;53.366;-1.498;2023-03-01T12:52:32;5.45;;;1.88;;
41897;SDS011;27576;53.366;-1.498;2023-03-01T12:55:06;3.83;;;1.50;;
41897;SDS011;27576;53.366;-1.498;2023-03-01T12:58:01;7.18;;;1.85;;
41897;SDS011;27576;53.366;-1.498;2023-03-01T13:00:30;5.55;;;1.63;;
41897;SDS011;27576;53.366;-1.498;2023-03-01T13:09:17;5.32;;;1.90;;
41897;SDS011;27576;53.366;-1.498;2023-03-01T13:11:50;3.95;;;1.58;;
41897;SDS011;27576;53.366;-1.498;2023-03-01T13:16:51;7.82;;;2.30;;
41897;SDS011;27576;53.366;-1.498;2023-03-01T13:19:20;8.38;;;2.53;;
41897;SDS011;27576;53.366;-1.498;2023-03-01T13:21:48;5.15;;;2.10;;
41897;SDS011;27576;53.366;-1.498;2023-03-01T13:27:08;7.07;;;2.00;;
41897;SDS011;27576;53.366;-1.498;2023-03-01T13:32:31;6.45;;;2.42;;
41897;SDS011;27576;53.366;-1.498;2023-03-01T13:34:59;6.80;;;2.70;;
41897;SDS011;27576;53.366;-1.498;2023-03-01T13:37:26;7.10;;;2.38;;
41897;SDS011;27576;53.366;-1.498;2023-03-01T13:39:55;6.55;;;2.20;;
41897;SDS011;27576;53.366;-1.498;2023-03-01T13:42:36;7.20;;;2.08;;
41897;SDS011;27576;53.366;-1.498;2023-03-01T13:45:20;4.97;;;1.80;;
41897;SDS011;27576;53.366;-1.498;2023-03-01T13:47:58;5.30;;;1.52;;
41897;SDS011;27576;53.366;-1.498;2023-03-01T13:50:28;6.32;;;1.60;;
41897;SDS011;27576;53.366;-1.498;2023-03-01T13:52:59;5.78;;;1.70;;
41897;SDS011;27576;53.366;-1.498;2023-03-01T13:55:44;7.75;;;1.88;;
41897;SDS011;27576;53.366;-1.498;2023-03-01T13:58:22;5.72;;;1.90;;
41897;SDS011;27576;53.366;-1.498;2023-03-01T14:00:57;6.03;;;1.60;;
41897;SDS011;27576;53.366;-1.498;2023-03-01T14:03:27;5.65;;;1.92;;
41897;SDS011;27576;53.366;-1.498;2023-03-01T14:08:25;6.10;;;2.47;;
41897;SDS011;27576;53.366;-1.498;2023-03-01T14:13:24;6.13;;;2.05;;
41897;SDS011;27576;53.366;-1.498;2023-03-01T14:18:49;6.35;;;1.92;;
41897;SDS011;27576;53.366;-1.498;2023-03-01T14:21:22;5.45;;;2.10;;
41897;SDS011;27576;53.366;-1.498;2023-03-01T14:23:48;5.07;;;1.75;;
41897;SDS011;27576;53.366;-1.498;2023-03-01T14:26:13;5.28;;;2.03;;
41897;SDS011;27576;53.366;-1.498;2023-03-01T14:28:46;10.05;;;1.85;;
41897;SDS011;27576;53.366;-1.498;2023-03-01T14:34:00;10.95;;;3.88;;
41897;SDS011;27576;53.366;-1.498;2023-03-01T14:36:26;8.57;;;2.53;;
41897;SDS011;27576;53.366;-1.498;2023-03-01T14:38:54;8.25;;;3.08;;
41897;SDS011;27576;53.366;-1.498;2023-03-01T14:41:23;9.55;;;3.92;;
41897;SDS011;27576;53.366;-1.498;2023-03-01T14:46:21;7.57;;;3.25;;
41897;SDS011;27576;53.366;-1.498;2023-03-01T14:48:55;11.07;;;2.97;;
41897;SDS011;27576;53.366;-1.498;2023-03-01T14:51:27;6.07;;;1.75;;
41897;SDS011;27576;53.366;-1.498;2023-03-01T14:53:53;7.57;;;2.22;;
41897;SDS011;27576;53.366;-1.498;2023-03-01T14:56:18;8.48;;;2.28;;
41897;SDS011;27576;53.366;-1.498;2023-03-01T14:58:44;8.63;;;1.92;;
41897;SDS011;27576;53.366;-1.498;2023-03-01T15:01:13;7.53;;;1.85;;
41897;SDS011;27576;53.366;-1.498;2023-03-01T15:03:45;4.65;;;1.58;;
41897;SDS011;27576;53.366;-1.498;2023-03-01T15:06:19;5.88;;;1.83;;
41897;SDS011;27576;53.366;-1.498;2023-03-01T15:08:48;6.68;;;1.85;;
41897;SDS011;27576;53.366;-1.498;2023-03-01T15:11:17;6.07;;;1.70;;
41897;SDS011;27576;53.366;-1.498;2023-03-01T15:13:44;8.85;;;2.10;;
41897;SDS011;27576;53.366;-1.498;2023-03-01T15:16:21;4.57;;;2.05;;
41897;SDS011;27576;53.366;-1.498;2023-03-01T15:18:59;6.43;;;1.75;;
41897;SDS011;27576;53.366;-1.498;2023-03-01T15:21:37;4.45;;;1.67;;
41897;SDS011;27576;53.366;-1.498;2023-03-01T15:26:51;6.60;;;2.25;;
41897;SDS011;27576;53.366;-1.498;2023-03-01T15:29:23;4.00;;;1.80;;
41897;SDS011;27576;53.366;-1.498;2023-03-01T15:31:58;5.47;;;2.10;;
41897;SDS011;27576;53.366;-1.498;2023-03-01T15:34:39;5.70;;;1.90;;
41897;SDS011;27576;53.366;-1.498;2023-03-01T15:37:05;7.50;;;1.83;;
41897;SDS011;27576;53.366;-1.498;2023-03-01T15:39:56;3.30;;;1.42;;
41897;SDS011;27576;53.366;-1.498;2023-03-01T15:45:06;5.95;;;2.00;;
41897;SDS011;27576;53.366;-1.498;2023-03-01T15:47:33;7.28;;;1.98;;
41897;SDS011;27576;53.366;-1.498;2023-03-01T15:50:01;5.15;;;1.73;;
41897;SDS011;27576;53.366;-1.498;2023-03-01T15:52:28;6.18;;;1.70;;
41897;SDS011;27576;53.366;-1.498;2023-03-01T15:55:00;6.82;;;1.88;;
41897;SDS011;27576;53.366;-1.498;2023-03-01T15:57:27;4.25;;;2.00;;
41897;SDS011;27576;53.366;-1.498;2023-03-01T15:59:53;4.00;;;1.88;;
41897;SDS011;27576;53.366;-1.498;2023-03-01T16:02:18;7.38;;;2.42;;
41897;SDS011;27576;53.366;-1.498;2023-03-01T16:04:46;7.18;;;2.38;;
41897;SDS011;27576;53.366;-1.498;2023-03-01T16:07:11;5.20;;;2.25;;
41897;SDS011;27576;53.366;-1.498;2023-03-01T16:09:37;5.70;;;2.10;;
41897;SDS011;27576;53.366;-1.498;2023-03-01T16:12:02;2.33;;;1.60;;
41897;SDS011;27576;53.366;-1.498;2023-03-01T16:14:28;7.80;;;1.88;;
41897;SDS011;27576;53.366;-1.498;2023-03-01T16:16:53;4.40;;;2.05;;
41897;SDS011;27576;53.366;-1.498;2023-03-01T16:19:19;3.50;;;1.70;;
41897;SDS011;27576;53.366;-1.498;2023-03-01T16:21:44;5.78;;;2.20;;
41897;SDS011;27576;53.366;-1.498;2023-03-01T16:24:11;7.55;;;2.08;;
41897;SDS011;27576;53.366;-1.498;2023-03-01T16:26:39;5.63;;;1.70;;
41897;SDS011;27576;53.366;-1.498;2023-03-01T16:29:04;4.65;;;1.60;;